sensor_id;sensor_type;location;lat;lon;timestamp;P1;durP1;ratioP1;P2;durP2;ratioP2
27199;SDS011;14714;48.106;11.546;2022-12-26T00:00:35;4.88;;;2.92;;
27199;SDS011;14714;48.106;11.546;2022-12-26T00:03:02;4.75;;;2.60;;
27199;SDS011;14714;48.106;11.546;2022-12-26T00:05:33;3.38;;;2.47;;
27199;SDS011;14714;48.106;11.546;2022-12-26T00:08:02;4.72;;;2.50;;
27199;SDS011;14714;48.106;11.546;2022-12-26T00:10:29;4.53;;;2.53;;
27199;SDS011;14714;48.106;11.546;2022-12-26T00:12:56;4.85;;;2.45;;
27199;SDS011;14714;48.106;11.546;2022-12-26T00:15:42;3.60;;;2.40;;
27199;SDS011;14714;48.106;11.546;2022-12-26T00:18:09;2.92;;;2.30;;
27199;SDS011;14714;48.106;11.546;2022-12-26T00:20:36;5.15;;;2.70;;
27199;SDS011;14714;48.106;11.546;2022-12-26T00:23:03;3.50;;;2.30;;
27199;SDS011;14714;48.106;11.546;2022-12-26T00:25:29;3.15;;;2.25;;
27199;SDS011;14714;48.106;11.546;2022-12-26T00:27:59;5.13;;;2.70;;
27199;SDS011;14714;48.106;11.546;2022-12-26T00:30:26;2.83;;;2.13;;
27199;SDS011;14714;48.106;11.546;2022-12-26T00:32:53;3.28;;;2.15;;
27199;SDS011;14714;48.106;11.546;2022-12-26T00:35:20;4.15;;;2.80;;
27199;SDS011;14714;48.106;11.546;2022-12-26T00:37:47;3.15;;;2.28;;
27199;SDS011;14714;48.106;11.546;2022-12-26T00:40:13;5.07;;;2.78;;
27199;SDS011;14714;48.106;11.546;2022-12-26T00:42:40;4.55;;;2.70;;
27199;SDS011;14714;48.106;11.546;2022-12-26T00:45:07;3.60;;;2.40;;
27199;SDS011;14714;48.106;11.546;2022-12-26T00:47:34;4.18;;;2.42;;
27199;SDS011;14714;48.106;11.546;2022-12-26T00:50:01;3.97;;;2.33;;
27199;SDS011;14714;48.106;11.546;2022-12-26T00:52:39;3.33;;;2.30;;
27199;SDS011;14714;48.106;11.546;2022-12-26T00:55:06;4.28;;;2.72;;
27199;SDS011;14714;48.106;11.546;2022-12-26T00:57:33;2.90;;;2.33;;
27199;SDS011;14714;48.106;11.546;2022-12-26T01:00:00;2.75;;;2.20;;
27199;SDS011;14714;48.106;11.546;2022-12-26T01:02:27;2.95;;;2.33;;
27199;SDS011;14714;48.106;11.546;2022-12-26T01:05:04;5.28;;;2.65;;
27199;SDS011;14714;48.106;11.546;2022-12-26T01:07:36;3.30;;;2.33;;
27199;SDS011;14714;48.106;11.546;2022-12-26T01:10:23;3.05;;;2.22;;
27199;SDS011;14714;48.106;11.546;2022-12-26T01:12:51;3.40;;;2.50;;
27199;SDS011;14714;48.106;11.546;2022-12-26T01:15:18;4.15;;;2.50;;
27199;SDS011;14714;48.106;11.546;2022-12-26T01:17:45;3.85;;;2.65;;
27199;SDS011;14714;48.106;11.546;2022-12-26T01:20:12;2.80;;;2.10;;
27199;SDS011;14714;48.106;11.546;2022-12-26T01:22:39;3.13;;;2.20;;
27199;SDS011;14714;48.106;11.546;2022-12-26T01:25:06;3.63;;;2.30;;
27199;SDS011;14714;48.106;11.546;2022-12-26T01:27:33;3.17;;;2.30;;
27199;SDS011;14714;48.106;11.546;2022-12-26T01:30:00;2.70;;;2.20;;
27199;SDS011;14714;48.106;11.546;2022-12-26T01:32:26;3.75;;;2.25;;
27199;SDS011;14714;48.106;11.546;2022-12-26T01:34:53;2.67;;;2.20;;
27199;SDS011;14714;48.106;11.546;2022-12-26T01:37:21;3.00;;;2.30;;
27199;SDS011;14714;48.106;11.546;2022-12-26T01:39:50;3.65;;;1.90;;
27199;SDS011;14714;48.106;11.546;2022-12-26T01:42:18;2.30;;;2.00;;
27199;SDS011;14714;48.106;11.546;2022-12-26T01:47:24;2.30;;;1.90;;
27199;SDS011;14714;48.106;11.546;2022-12-26T01:50:14;2.67;;;1.95;;
27199;SDS011;14714;48.106;11.546;2022-12-26T01:52:46;2.75;;;2.10;;
27199;SDS011;14714;48.106;11.546;2022-12-26T01:55:15;2.53;;;2.03;;
27199;SDS011;14714;48.106;11.546;2022-12-26T01:57:51;2.65;;;2.00;;
27199;SDS011;14714;48.106;11.546;2022-12-26T02:00:25;2.13;;;1.90;;
27199;SDS011;14714;48.106;11.546;2022-12-26T02:02:52;3.03;;;1.95;;
27199;SDS011;14714;48.106;11.546;2022-12-26T02:05:38;2.38;;;1.65;;
27199;SDS011;14714;48.106;11.546;2022-12-26T02:08:09;2.30;;;1.90;;
27199;SDS011;14714;48.106;11.546;2022-12-26T02:10:47;3.30;;;1.77;;
27199;SDS011;14714;48.106;11.546;2022-12-26T02:13:17;2.30;;;1.83;;
27199;SDS011;14714;48.106;11.546;2022-12-26T02:15:45;1.95;;;1.70;;
27199;SDS011;14714;48.106;11.546;2022-12-26T02:18:13;3.33;;;1.90;;
27199;SDS011;14714;48.106;11.546;2022-12-26T02:29:03;3.90;;;2.03;;
27199;SDS011;14714;48.106;11.546;2022-12-26T02:31:50;3.45;;;2.28;;
27199;SDS011;14714;48.106;11.546;2022-12-26T02:34:46;3.35;;;2.05;;
27199;SDS011;14714;48.106;11.546;2022-12-26T02:40:18;5.77;;;3.33;;
27199;SDS011;14714;48.106;11.546;2022-12-26T02:46:07;3.00;;;2.08;;
27199;SDS011;14714;48.106;11.546;2022-12-26T02:49:27;2.22;;;1.80;;
27199;SDS011;14714;48.106;11.546;2022-12-26T02:52:18;2.08;;;1.60;;
27199;SDS011;14714;48.106;11.546;2022-12-26T02:55:12;2.58;;;1.80;;
27199;SDS011;14714;48.106;11.546;2022-12-26T02:58:18;2.17;;;1.83;;
27199;SDS011;14714;48.106;11.546;2022-12-26T03:01:20;2.35;;;2.03;;
27199;SDS011;14714;48.106;11.546;2022-12-26T03:04:15;2.20;;;1.67;;
27199;SDS011;14714;48.106;11.546;2022-12-26T03:07:02;2.85;;;1.30;;
27199;SDS011;14714;48.106;11.546;2022-12-26T03:09:54;2.47;;;1.40;;
27199;SDS011;14714;48.106;11.546;2022-12-26T03:12:44;1.73;;;1.60;;
27199;SDS011;14714;48.106;11.546;2022-12-26T03:15:41;2.15;;;1.65;;
27199;SDS011;14714;48.106;11.546;2022-12-26T03:18:42;2.65;;;1.70;;
27199;SDS011;14714;48.106;11.546;2022-12-26T03:21:27;1.80;;;1.60;;
27199;SDS011;14714;48.106;11.546;2022-12-26T03:23:56;1.75;;;1.50;;
27199;SDS011;14714;48.106;11.546;2022-12-26T03:26:34;1.95;;;1.55;;
27199;SDS011;14714;48.106;11.546;2022-12-26T03:29:08;1.60;;;1.50;;
27199;SDS011;14714;48.106;11.546;2022-12-26T03:31:55;2.45;;;1.50;;
27199;SDS011;14714;48.106;11.546;2022-12-26T03:34:22;2.55;;;1.67;;
27199;SDS011;14714;48.106;11.546;2022-12-26T03:46:23;2.05;;;1.63;;
27199;SDS011;14714;48.106;11.546;2022-12-26T03:49:30;1.90;;;1.70;;
27199;SDS011;14714;48.106;11.546;2022-12-26T03:52:29;2.05;;;1.50;;
27199;SDS011;14714;48.106;11.546;2022-12-26T04:01:55;1.65;;;1.45;;
27199;SDS011;14714;48.106;11.546;2022-12-26T04:04:45;3.03;;;1.88;;
27199;SDS011;14714;48.106;11.546;2022-12-26T04:07:34;3.17;;;1.88;;
27199;SDS011;14714;48.106;11.546;2022-12-26T04:10:26;2.78;;;1.60;;
27199;SDS011;14714;48.106;11.546;2022-12-26T04:13:17;3.20;;;1.95;;
27199;SDS011;14714;48.106;11.546;2022-12-26T04:16:23;2.35;;;1.70;;
27199;SDS011;14714;48.106;11.546;2022-12-26T04:19:19;3.28;;;1.77;;
27199;SDS011;14714;48.106;11.546;2022-12-26T04:22:08;1.30;;;1.20;;
27199;SDS011;14714;48.106;11.546;2022-12-26T04:25:12;1.77;;;1.58;;
27199;SDS011;14714;48.106;11.546;2022-12-26T04:28:16;2.00;;;1.63;;
27199;SDS011;14714;48.106;11.546;2022-12-26T04:31:08;1.50;;;1.40;;
27199;SDS011;14714;48.106;11.546;2022-12-26T04:34:09;1.80;;;1.50;;
27199;SDS011;14714;48.106;11.546;2022-12-26T04:37:02;2.80;;;1.65;;
27199;SDS011;14714;48.106;11.546;2022-12-26T04:39:50;1.88;;;1.60;;
27199;SDS011;14714;48.106;11.546;2022-12-26T04:42:40;2.17;;;1.50;;
27199;SDS011;14714;48.106;11.546;2022-12-26T04:45:48;1.85;;;1.42;;
27199;SDS011;14714;48.106;11.546;2022-12-26T04:48:15;2.05;;;1.52;;
27199;SDS011;14714;48.106;11.546;2022-12-26T04:51:00;2.10;;;1.45;;
27199;SDS011;14714;48.106;11.546;2022-12-26T04:53:27;1.95;;;1.60;;
27199;SDS011;14714;48.106;11.546;2022-12-26T04:55:54;1.60;;;1.40;;
27199;SDS011;14714;48.106;11.546;2022-12-26T04:58:20;2.35;;;1.58;;
27199;SDS011;14714;48.106;11.546;2022-12-26T05:00:49;1.75;;;1.50;;
27199;SDS011;14714;48.106;11.546;2022-12-26T05:03:16;1.60;;;1.48;;
27199;SDS011;14714;48.106;11.546;2022-12-26T05:06:01;2.42;;;1.23;;
27199;SDS011;14714;48.106;11.546;2022-12-26T05:08:47;2.30;;;1.70;;
27199;SDS011;14714;48.106;11.546;2022-12-26T05:11:33;2.58;;;1.90;;
27199;SDS011;14714;48.106;11.546;2022-12-26T05:14:00;2.65;;;1.70;;
27199;SDS011;14714;48.106;11.546;2022-12-26T05:16:27;3.17;;;1.92;;
27199;SDS011;14714;48.106;11.546;2022-12-26T05:19:13;4.35;;;2.30;;
27199;SDS011;14714;48.106;11.546;2022-12-26T05:22:00;3.22;;;1.83;;
27199;SDS011;14714;48.106;11.546;2022-12-26T05:24:47;3.88;;;2.08;;
27199;SDS011;14714;48.106;11.546;2022-12-26T05:27:34;3.15;;;1.90;;
27199;SDS011;14714;48.106;11.546;2022-12-26T05:30:21;3.75;;;2.10;;
27199;SDS011;14714;48.106;11.546;2022-12-26T05:32:49;2.88;;;1.80;;
27199;SDS011;14714;48.106;11.546;2022-12-26T05:35:34;3.38;;;1.80;;
27199;SDS011;14714;48.106;11.546;2022-12-26T05:38:02;2.00;;;1.77;;
27199;SDS011;14714;48.106;11.546;2022-12-26T05:40:29;2.60;;;1.65;;
27199;SDS011;14714;48.106;11.546;2022-12-26T05:42:56;2.38;;;1.60;;
27199;SDS011;14714;48.106;11.546;2022-12-26T05:45:23;2.15;;;1.65;;
27199;SDS011;14714;48.106;11.546;2022-12-26T05:47:49;2.15;;;1.83;;
27199;SDS011;14714;48.106;11.546;2022-12-26T05:50:24;2.15;;;1.60;;
27199;SDS011;14714;48.106;11.546;2022-12-26T05:52:51;2.25;;;1.58;;
27199;SDS011;14714;48.106;11.546;2022-12-26T05:55:17;2.58;;;1.83;;
27199;SDS011;14714;48.106;11.546;2022-12-26T05:57:44;2.58;;;1.80;;
27199;SDS011;14714;48.106;11.546;2022-12-26T06:00:11;3.10;;;1.80;;
27199;SDS011;14714;48.106;11.546;2022-12-26T06:02:39;1.92;;;1.50;;
27199;SDS011;14714;48.106;11.546;2022-12-26T06:05:05;2.58;;;1.60;;
27199;SDS011;14714;48.106;11.546;2022-12-26T06:07:32;2.40;;;1.50;;
27199;SDS011;14714;48.106;11.546;2022-12-26T06:09:59;1.80;;;1.45;;
27199;SDS011;14714;48.106;11.546;2022-12-26T06:12:26;3.38;;;1.83;;
27199;SDS011;14714;48.106;11.546;2022-12-26T06:14:53;1.83;;;1.60;;
27199;SDS011;14714;48.106;11.546;2022-12-26T06:17:20;2.72;;;1.70;;
27199;SDS011;14714;48.106;11.546;2022-12-26T06:19:46;1.90;;;1.63;;
27199;SDS011;14714;48.106;11.546;2022-12-26T06:22:13;3.50;;;2.00;;
27199;SDS011;14714;48.106;11.546;2022-12-26T06:24:40;2.20;;;1.70;;
27199;SDS011;14714;48.106;11.546;2022-12-26T06:27:06;2.90;;;1.70;;
27199;SDS011;14714;48.106;11.546;2022-12-26T06:29:33;2.15;;;1.60;;
27199;SDS011;14714;48.106;11.546;2022-12-26T06:32:00;2.28;;;1.80;;
27199;SDS011;14714;48.106;11.546;2022-12-26T06:34:27;2.50;;;1.73;;
27199;SDS011;14714;48.106;11.546;2022-12-26T06:36:54;2.40;;;1.80;;
27199;SDS011;14714;48.106;11.546;2022-12-26T06:39:21;2.45;;;1.77;;
27199;SDS011;14714;48.106;11.546;2022-12-26T06:41:48;2.83;;;1.80;;
27199;SDS011;14714;48.106;11.546;2022-12-26T06:44:15;2.30;;;1.77;;
27199;SDS011;14714;48.106;11.546;2022-12-26T06:46:44;1.73;;;1.63;;
27199;SDS011;14714;48.106;11.546;2022-12-26T06:49:11;2.20;;;1.70;;
27199;SDS011;14714;48.106;11.546;2022-12-26T06:51:38;2.35;;;1.55;;
27199;SDS011;14714;48.106;11.546;2022-12-26T06:54:05;2.22;;;1.67;;
27199;SDS011;14714;48.106;11.546;2022-12-26T06:56:32;2.00;;;1.50;;
27199;SDS011;14714;48.106;11.546;2022-12-26T06:59:03;1.88;;;1.60;;
27199;SDS011;14714;48.106;11.546;2022-12-26T07:01:33;3.40;;;1.50;;
27199;SDS011;14714;48.106;11.546;2022-12-26T07:04:00;1.75;;;1.48;;
27199;SDS011;14714;48.106;11.546;2022-12-26T07:06:28;2.03;;;1.60;;
27199;SDS011;14714;48.106;11.546;2022-12-26T07:08:56;1.77;;;1.48;;
27199;SDS011;14714;48.106;11.546;2022-12-26T07:11:28;2.00;;;1.60;;
27199;SDS011;14714;48.106;11.546;2022-12-26T07:13:57;1.85;;;1.58;;
27199;SDS011;14714;48.106;11.546;2022-12-26T07:16:24;2.08;;;1.50;;
27199;SDS011;14714;48.106;11.546;2022-12-26T07:18:52;1.75;;;1.65;;
27199;SDS011;14714;48.106;11.546;2022-12-26T07:21:19;2.67;;;1.60;;
27199;SDS011;14714;48.106;11.546;2022-12-26T07:23:47;2.80;;;1.40;;
27199;SDS011;14714;48.106;11.546;2022-12-26T07:26:14;2.53;;;1.52;;
27199;SDS011;14714;48.106;11.546;2022-12-26T07:28:41;3.15;;;1.73;;
27199;SDS011;14714;48.106;11.546;2022-12-26T07:31:08;1.77;;;1.58;;
27199;SDS011;14714;48.106;11.546;2022-12-26T07:33:35;1.58;;;1.45;;
27199;SDS011;14714;48.106;11.546;2022-12-26T07:36:05;5.40;;;1.55;;
27199;SDS011;14714;48.106;11.546;2022-12-26T07:40:59;2.13;;;1.50;;
27199;SDS011;14714;48.106;11.546;2022-12-26T07:43:45;2.70;;;1.60;;
27199;SDS011;14714;48.106;11.546;2022-12-26T07:46:12;1.90;;;1.60;;
27199;SDS011;14714;48.106;11.546;2022-12-26T07:48:39;2.20;;;1.48;;
27199;SDS011;14714;48.106;11.546;2022-12-26T07:51:05;2.05;;;1.55;;
27199;SDS011;14714;48.106;11.546;2022-12-26T07:53:32;1.88;;;1.60;;
27199;SDS011;14714;48.106;11.546;2022-12-26T07:55:59;2.13;;;1.65;;
27199;SDS011;14714;48.106;11.546;2022-12-26T07:58:26;1.80;;;1.50;;
27199;SDS011;14714;48.106;11.546;2022-12-26T08:00:53;2.45;;;1.60;;
27199;SDS011;14714;48.106;11.546;2022-12-26T08:03:20;2.78;;;2.15;;
27199;SDS011;14714;48.106;11.546;2022-12-26T08:05:47;3.88;;;2.10;;
27199;SDS011;14714;48.106;11.546;2022-12-26T08:08:15;3.80;;;2.40;;
27199;SDS011;14714;48.106;11.546;2022-12-26T08:10:42;2.38;;;1.88;;
27199;SDS011;14714;48.106;11.546;2022-12-26T08:13:08;2.53;;;1.83;;
27199;SDS011;14714;48.106;11.546;2022-12-26T08:15:38;3.88;;;2.30;;
27199;SDS011;14714;48.106;11.546;2022-12-26T08:18:06;2.10;;;1.70;;
27199;SDS011;14714;48.106;11.546;2022-12-26T08:20:33;2.67;;;1.80;;
27199;SDS011;14714;48.106;11.546;2022-12-26T08:22:59;1.80;;;1.60;;
27199;SDS011;14714;48.106;11.546;2022-12-26T08:25:26;2.13;;;1.67;;
27199;SDS011;14714;48.106;11.546;2022-12-26T08:27:53;1.60;;;1.50;;
27199;SDS011;14714;48.106;11.546;2022-12-26T08:30:20;2.65;;;1.70;;
27199;SDS011;14714;48.106;11.546;2022-12-26T08:32:46;1.92;;;1.50;;
27199;SDS011;14714;48.106;11.546;2022-12-26T08:35:15;1.90;;;1.70;;
27199;SDS011;14714;48.106;11.546;2022-12-26T08:37:42;4.35;;;1.70;;
27199;SDS011;14714;48.106;11.546;2022-12-26T08:40:09;1.98;;;1.40;;
27199;SDS011;14714;48.106;11.546;2022-12-26T08:42:37;1.65;;;1.50;;
27199;SDS011;14714;48.106;11.546;2022-12-26T08:45:24;2.25;;;1.67;;
27199;SDS011;14714;48.106;11.546;2022-12-26T08:47:52;2.30;;;1.85;;
27199;SDS011;14714;48.106;11.546;2022-12-26T08:50:20;2.60;;;1.60;;
27199;SDS011;14714;48.106;11.546;2022-12-26T08:52:46;1.70;;;1.58;;
27199;SDS011;14714;48.106;11.546;2022-12-26T08:55:13;1.65;;;1.40;;
27199;SDS011;14714;48.106;11.546;2022-12-26T08:57:40;2.10;;;1.60;;
27199;SDS011;14714;48.106;11.546;2022-12-26T09:00:07;3.55;;;1.65;;
27199;SDS011;14714;48.106;11.546;2022-12-26T09:02:34;2.33;;;1.65;;
27199;SDS011;14714;48.106;11.546;2022-12-26T09:05:02;2.20;;;1.77;;
27199;SDS011;14714;48.106;11.546;2022-12-26T09:07:28;2.58;;;1.38;;
27199;SDS011;14714;48.106;11.546;2022-12-26T09:09:55;2.80;;;1.70;;
27199;SDS011;14714;48.106;11.546;2022-12-26T09:12:22;2.28;;;1.67;;
27199;SDS011;14714;48.106;11.546;2022-12-26T09:14:49;2.80;;;1.55;;
27199;SDS011;14714;48.106;11.546;2022-12-26T09:17:15;1.65;;;1.55;;
27199;SDS011;14714;48.106;11.546;2022-12-26T09:19:42;3.25;;;1.65;;
27199;SDS011;14714;48.106;11.546;2022-12-26T09:22:09;2.13;;;1.50;;
27199;SDS011;14714;48.106;11.546;2022-12-26T09:25:00;2.13;;;1.70;;
27199;SDS011;14714;48.106;11.546;2022-12-26T09:27:27;2.35;;;1.60;;
27199;SDS011;14714;48.106;11.546;2022-12-26T09:29:54;2.15;;;1.42;;
27199;SDS011;14714;48.106;11.546;2022-12-26T09:32:21;3.28;;;1.63;;
27199;SDS011;14714;48.106;11.546;2022-12-26T09:34:48;2.38;;;1.50;;
27199;SDS011;14714;48.106;11.546;2022-12-26T09:37:14;1.70;;;1.50;;
27199;SDS011;14714;48.106;11.546;2022-12-26T09:39:41;1.80;;;1.55;;
27199;SDS011;14714;48.106;11.546;2022-12-26T09:42:22;1.67;;;1.50;;
27199;SDS011;14714;48.106;11.546;2022-12-26T09:47:32;1.92;;;1.50;;
27199;SDS011;14714;48.106;11.546;2022-12-26T09:52:49;1.85;;;1.48;;
27199;SDS011;14714;48.106;11.546;2022-12-26T09:57:52;2.13;;;1.60;;
27199;SDS011;14714;48.106;11.546;2022-12-26T10:00:24;2.35;;;1.48;;
27199;SDS011;14714;48.106;11.546;2022-12-26T10:14:31;2.03;;;1.63;;
27199;SDS011;14714;48.106;11.546;2022-12-26T10:25:47;3.42;;;1.40;;
27199;SDS011;14714;48.106;11.546;2022-12-26T10:31:01;1.50;;;1.40;;
27199;SDS011;14714;48.106;11.546;2022-12-26T10:33:40;2.28;;;1.50;;
27199;SDS011;14714;48.106;11.546;2022-12-26T10:36:25;1.65;;;1.42;;
27199;SDS011;14714;48.106;11.546;2022-12-26T10:38:58;1.40;;;1.30;;
27199;SDS011;14714;48.106;11.546;2022-12-26T10:41:33;2.10;;;1.23;;
27199;SDS011;14714;48.106;11.546;2022-12-26T10:44:08;3.10;;;1.60;;
27199;SDS011;14714;48.106;11.546;2022-12-26T10:49:27;2.67;;;1.53;;
27199;SDS011;14714;48.106;11.546;2022-12-26T10:51:55;2.95;;;1.70;;
27199;SDS011;14714;48.106;11.546;2022-12-26T10:54:26;4.80;;;2.00;;
27199;SDS011;14714;48.106;11.546;2022-12-26T10:56:55;2.47;;;1.88;;
27199;SDS011;14714;48.106;11.546;2022-12-26T10:59:33;3.38;;;1.98;;
27199;SDS011;14714;48.106;11.546;2022-12-26T11:04:39;3.28;;;1.42;;
27199;SDS011;14714;48.106;11.546;2022-12-26T11:07:51;2.22;;;1.25;;
27199;SDS011;14714;48.106;11.546;2022-12-26T11:10:23;1.63;;;1.20;;
27199;SDS011;14714;48.106;11.546;2022-12-26T11:12:52;3.03;;;1.55;;
27199;SDS011;14714;48.106;11.546;2022-12-26T11:15:34;1.58;;;1.48;;
27199;SDS011;14714;48.106;11.546;2022-12-26T11:18:08;1.60;;;1.30;;
27199;SDS011;14714;48.106;11.546;2022-12-26T11:20:55;1.60;;;1.30;;
27199;SDS011;14714;48.106;11.546;2022-12-26T11:23:39;2.30;;;1.40;;
27199;SDS011;14714;48.106;11.546;2022-12-26T11:26:17;2.53;;;1.33;;
27199;SDS011;14714;48.106;11.546;2022-12-26T11:29:22;1.60;;;1.20;;
27199;SDS011;14714;48.106;11.546;2022-12-26T11:36:54;1.58;;;1.40;;
27199;SDS011;14714;48.106;11.546;2022-12-26T11:39:22;2.60;;;1.40;;
27199;SDS011;14714;48.106;11.546;2022-12-26T11:41:52;1.48;;;1.38;;
27199;SDS011;14714;48.106;11.546;2022-12-26T11:44:30;1.63;;;1.40;;
27199;SDS011;14714;48.106;11.546;2022-12-26T11:47:10;1.60;;;1.30;;
27199;SDS011;14714;48.106;11.546;2022-12-26T11:49:40;2.45;;;1.40;;
27199;SDS011;14714;48.106;11.546;2022-12-26T11:52:49;1.92;;;1.45;;
27199;SDS011;14714;48.106;11.546;2022-12-26T12:03:00;3.63;;;1.52;;
27199;SDS011;14714;48.106;11.546;2022-12-26T12:10:48;2.65;;;1.50;;
27199;SDS011;14714;48.106;11.546;2022-12-26T12:13:35;2.33;;;1.77;;
27199;SDS011;14714;48.106;11.546;2022-12-26T12:25:13;2.75;;;1.70;;
27199;SDS011;14714;48.106;11.546;2022-12-26T12:27:59;4.32;;;1.88;;
27199;SDS011;14714;48.106;11.546;2022-12-26T12:33:56;2.58;;;1.98;;
27199;SDS011;14714;48.106;11.546;2022-12-26T12:36:54;4.60;;;2.40;;
27199;SDS011;14714;48.106;11.546;2022-12-26T12:44:56;2.80;;;2.40;;
27199;SDS011;14714;48.106;11.546;2022-12-26T13:02:01;5.00;;;2.80;;
27199;SDS011;14714;48.106;11.546;2022-12-26T13:04:45;3.72;;;2.60;;
27199;SDS011;14714;48.106;11.546;2022-12-26T13:07:19;5.25;;;2.92;;
27199;SDS011;14714;48.106;11.546;2022-12-26T13:09:59;5.78;;;2.78;;
27199;SDS011;14714;48.106;11.546;2022-12-26T13:12:34;5.10;;;2.97;;
27199;SDS011;14714;48.106;11.546;2022-12-26T13:15:08;4.47;;;3.05;;
27199;SDS011;14714;48.106;11.546;2022-12-26T13:17:57;4.03;;;3.00;;
27199;SDS011;14714;48.106;11.546;2022-12-26T13:20:33;5.05;;;2.90;;
27199;SDS011;14714;48.106;11.546;2022-12-26T13:23:31;5.85;;;3.20;;
27199;SDS011;14714;48.106;11.546;2022-12-26T13:26:23;6.15;;;3.13;;
27199;SDS011;14714;48.106;11.546;2022-12-26T13:29:00;4.28;;;2.72;;
27199;SDS011;14714;48.106;11.546;2022-12-26T13:31:33;4.30;;;3.20;;
27199;SDS011;14714;48.106;11.546;2022-12-26T13:34:02;4.25;;;3.25;;
27199;SDS011;14714;48.106;11.546;2022-12-26T13:36:40;7.95;;;3.47;;
27199;SDS011;14714;48.106;11.546;2022-12-26T13:41:38;5.75;;;3.20;;
27199;SDS011;14714;48.106;11.546;2022-12-26T13:44:34;4.20;;;3.00;;
27199;SDS011;14714;48.106;11.546;2022-12-26T13:47:01;6.65;;;3.17;;
27199;SDS011;14714;48.106;11.546;2022-12-26T14:05:52;5.13;;;2.90;;
27199;SDS011;14714;48.106;11.546;2022-12-26T14:08:40;4.70;;;2.55;;
27199;SDS011;14714;48.106;11.546;2022-12-26T14:25:33;5.75;;;3.25;;
27199;SDS011;14714;48.106;11.546;2022-12-26T14:33:38;5.90;;;3.10;;
27199;SDS011;14714;48.106;11.546;2022-12-26T14:44:51;5.82;;;3.38;;
27199;SDS011;14714;48.106;11.546;2022-12-26T14:53:48;4.38;;;3.15;;
27199;SDS011;14714;48.106;11.546;2022-12-26T15:03:40;5.82;;;3.17;;
27199;SDS011;14714;48.106;11.546;2022-12-26T15:29:05;3.63;;;2.92;;
27199;SDS011;14714;48.106;11.546;2022-12-26T15:32:07;3.92;;;2.72;;
27199;SDS011;14714;48.106;11.546;2022-12-26T15:34:49;3.60;;;2.70;;
27199;SDS011;14714;48.106;11.546;2022-12-26T15:40:14;3.40;;;2.60;;
27199;SDS011;14714;48.106;11.546;2022-12-26T15:51:00;3.65;;;1.70;;
27199;SDS011;14714;48.106;11.546;2022-12-26T15:53:44;2.15;;;1.80;;
27199;SDS011;14714;48.106;11.546;2022-12-26T16:08:14;1.60;;;1.40;;
27199;SDS011;14714;48.106;11.546;2022-12-26T16:13:34;1.67;;;1.40;;
27199;SDS011;14714;48.106;11.546;2022-12-26T16:16:01;3.15;;;1.50;;
27199;SDS011;14714;48.106;11.546;2022-12-26T16:18:30;3.47;;;1.30;;
27199;SDS011;14714;48.106;11.546;2022-12-26T16:21:02;1.60;;;1.40;;
27199;SDS011;14714;48.106;11.546;2022-12-26T16:23:50;1.98;;;1.23;;
27199;SDS011;14714;48.106;11.546;2022-12-26T16:26:24;2.28;;;1.30;;
27199;SDS011;14714;48.106;11.546;2022-12-26T16:28:54;1.00;;;0.90;;
27199;SDS011;14714;48.106;11.546;2022-12-26T16:31:25;2.75;;;1.17;;
27199;SDS011;14714;48.106;11.546;2022-12-26T16:33:55;1.50;;;0.93;;
27199;SDS011;14714;48.106;11.546;2022-12-26T16:36:27;1.92;;;1.10;;
27199;SDS011;14714;48.106;11.546;2022-12-26T16:38:55;1.80;;;1.60;;
27199;SDS011;14714;48.106;11.546;2022-12-26T16:41:26;3.85;;;1.33;;
27199;SDS011;14714;48.106;11.546;2022-12-26T16:43:56;3.50;;;2.25;;
27199;SDS011;14714;48.106;11.546;2022-12-26T16:46:43;2.47;;;1.83;;
27199;SDS011;14714;48.106;11.546;2022-12-26T16:49:10;2.67;;;1.70;;
27199;SDS011;14714;48.106;11.546;2022-12-26T16:51:45;1.83;;;1.20;;
27199;SDS011;14714;48.106;11.546;2022-12-26T16:56:52;2.30;;;1.30;;
27199;SDS011;14714;48.106;11.546;2022-12-26T17:02:35;2.03;;;1.48;;
27199;SDS011;14714;48.106;11.546;2022-12-26T17:05:02;2.47;;;1.40;;
27199;SDS011;14714;48.106;11.546;2022-12-26T17:07:33;1.58;;;1.30;;
27199;SDS011;14714;48.106;11.546;2022-12-26T17:10:04;2.42;;;1.45;;
27199;SDS011;14714;48.106;11.546;2022-12-26T17:12:38;5.55;;;2.67;;
27199;SDS011;14714;48.106;11.546;2022-12-26T17:15:06;3.17;;;1.95;;
27199;SDS011;14714;48.106;11.546;2022-12-26T17:17:36;3.70;;;2.47;;
27199;SDS011;14714;48.106;11.546;2022-12-26T17:22:53;2.45;;;2.00;;
27199;SDS011;14714;48.106;11.546;2022-12-26T17:30:35;3.28;;;1.60;;
27199;SDS011;14714;48.106;11.546;2022-12-26T17:33:09;1.90;;;1.40;;
27199;SDS011;14714;48.106;11.546;2022-12-26T17:35:39;1.25;;;1.00;;
27199;SDS011;14714;48.106;11.546;2022-12-26T17:38:27;2.03;;;1.35;;
27199;SDS011;14714;48.106;11.546;2022-12-26T17:40:56;1.90;;;1.42;;
27199;SDS011;14714;48.106;11.546;2022-12-26T17:43:28;3.20;;;1.60;;
27199;SDS011;14714;48.106;11.546;2022-12-26T17:45:56;1.92;;;1.40;;
27199;SDS011;14714;48.106;11.546;2022-12-26T17:48:23;2.80;;;1.30;;
27199;SDS011;14714;48.106;11.546;2022-12-26T17:50:54;2.05;;;1.40;;
27199;SDS011;14714;48.106;11.546;2022-12-26T17:53:31;3.00;;;1.50;;
27199;SDS011;14714;48.106;11.546;2022-12-26T17:56:01;1.67;;;1.40;;
27199;SDS011;14714;48.106;11.546;2022-12-26T17:58:30;2.13;;;1.30;;
27199;SDS011;14714;48.106;11.546;2022-12-26T18:00:57;2.88;;;1.27;;
27199;SDS011;14714;48.106;11.546;2022-12-26T18:03:25;2.00;;;1.27;;
27199;SDS011;14714;48.106;11.546;2022-12-26T18:05:52;1.42;;;1.20;;
27199;SDS011;14714;48.106;11.546;2022-12-26T18:08:35;1.10;;;1.00;;
27199;SDS011;14714;48.106;11.546;2022-12-26T18:11:04;1.77;;;1.20;;
27199;SDS011;14714;48.106;11.546;2022-12-26T18:13:33;2.23;;;1.03;;
27199;SDS011;14714;48.106;11.546;2022-12-26T18:16:00;1.40;;;1.23;;
27199;SDS011;14714;48.106;11.546;2022-12-26T18:18:35;2.55;;;1.00;;
27199;SDS011;14714;48.106;11.546;2022-12-26T18:21:06;1.48;;;1.15;;
27199;SDS011;14714;48.106;11.546;2022-12-26T18:23:35;1.20;;;1.10;;
27199;SDS011;14714;48.106;11.546;2022-12-26T18:26:04;1.35;;;1.13;;
27199;SDS011;14714;48.106;11.546;2022-12-26T18:28:42;1.38;;;0.90;;
27199;SDS011;14714;48.106;11.546;2022-12-26T18:31:13;2.72;;;1.00;;
27199;SDS011;14714;48.106;11.546;2022-12-26T18:33:41;1.15;;;1.05;;
27199;SDS011;14714;48.106;11.546;2022-12-26T18:36:12;1.10;;;1.00;;
27199;SDS011;14714;48.106;11.546;2022-12-26T18:38:40;0.73;;;0.73;;
27199;SDS011;14714;48.106;11.546;2022-12-26T18:41:16;0.95;;;0.95;;
27199;SDS011;14714;48.106;11.546;2022-12-26T18:43:45;0.65;;;0.65;;
27199;SDS011;14714;48.106;11.546;2022-12-26T18:46:19;0.93;;;0.80;;
27199;SDS011;14714;48.106;11.546;2022-12-26T18:48:47;1.35;;;0.82;;
27199;SDS011;14714;48.106;11.546;2022-12-26T18:51:15;1.23;;;1.02;;
27199;SDS011;14714;48.106;11.546;2022-12-26T18:53:42;1.00;;;1.00;;
27199;SDS011;14714;48.106;11.546;2022-12-26T18:56:11;1.42;;;1.10;;
27199;SDS011;14714;48.106;11.546;2022-12-26T18:58:40;1.10;;;1.00;;
27199;SDS011;14714;48.106;11.546;2022-12-26T19:01:06;1.13;;;0.80;;
27199;SDS011;14714;48.106;11.546;2022-12-26T19:03:36;1.10;;;0.77;;
27199;SDS011;14714;48.106;11.546;2022-12-26T19:06:02;0.95;;;0.80;;
27199;SDS011;14714;48.106;11.546;2022-12-26T19:08:29;1.17;;;1.00;;
27199;SDS011;14714;48.106;11.546;2022-12-26T19:10:56;2.28;;;1.67;;
27199;SDS011;14714;48.106;11.546;2022-12-26T19:13:23;2.80;;;1.50;;
27199;SDS011;14714;48.106;11.546;2022-12-26T19:15:50;2.40;;;1.30;;
27199;SDS011;14714;48.106;11.546;2022-12-26T19:18:17;1.52;;;1.40;;